»·PEaware :: JST457 YPMQ-YSSY

JST457 :: YPMQ-YSSY

FLIGHT INFORMATION

Flight Status: Arrived
Operator:
Jetstar Airways
More flights by this operator :: More flights under this callsign
Pilot: Alan S. (10569)
Aircraft: AIRBUS A320
(A320)
More flights by this aircraft type
Origin: YPMQ Port Macquarie
Australia
Destination: YSSY Kingsford Smith Intl
Australia
More flights between these airports :: More routes between these airports
Route: DCT JOKER J70 CORKY H12 BOREE BOREE6
File this flight plan on PilotEdge
Remarks:
Altitude:
(Current/Filed)
23,000ft
Speed:
(Current/Filed)
460kts
Departed: 02-Jul-17 12:33 AM
Arrived: 02-Jul-17 01:19 AM
Distance/Time
Traveled:
173nm/0:46
Distance/Time
To Go:
Arrived

Flight Plot

Page will automatically refresh every two minutes.

Flight plan parsing failed; only flown route is shown


Map Options




Map Legend


Flown Route
Filed Route
Departure Airport
Arrival Airport
Navaid (VOR, NDB)
Fix

Horizontal Profiles

Position Reports

Time Latitude Longitude Heading Altitude Ground
Speed
02-Jul-17 00:06 -31.430691 152.867117 237 20ft 0kts
02-Jul-17 00:07 -31.430691 152.867117 237 20ft 0kts
02-Jul-17 00:08 -31.430691 152.867117 237 20ft 0kts
02-Jul-17 00:09 -31.430691 152.867117 237 20ft 0kts
02-Jul-17 00:10 -31.430691 152.867117 237 20ft 0kts
02-Jul-17 00:13 -31.430793 152.867112 258 20ft 0kts
02-Jul-17 00:14 -31.430793 152.867112 258 20ft 0kts
02-Jul-17 00:15 -31.430793 152.867112 258 20ft 0kts
02-Jul-17 00:16 -31.430793 152.867112 258 20ft 0kts
02-Jul-17 00:17 -31.430793 152.867112 258 20ft 0kts
02-Jul-17 00:18 -31.430793 152.867112 258 20ft 0kts
02-Jul-17 00:19 -31.430793 152.867112 258 20ft 0kts
02-Jul-17 00:20 -31.430793 152.867112 258 20ft 0kts
02-Jul-17 00:21 -31.430793 152.867112 258 20ft 0kts
02-Jul-17 00:22 -31.430793 152.867112 258 20ft 0kts
02-Jul-17 00:23 -31.430793 152.867112 258 20ft 0kts
02-Jul-17 00:24 -31.430793 152.867112 258 20ft 0kts
02-Jul-17 00:25 -31.430793 152.867112 258 20ft 0kts
02-Jul-17 00:26 -31.430793 152.867112 258 20ft 0kts
02-Jul-17 00:27 -31.430793 152.867112 258 20ft 0kts
02-Jul-17 00:28 -31.430793 152.867112 258 20ft 0kts
02-Jul-17 00:29 -31.430793 152.867112 258 20ft 0kts
02-Jul-17 00:30 -31.430793 152.867112 258 20ft 0kts
02-Jul-17 00:31 -31.430793 152.867112 258 20ft 0kts
02-Jul-17 00:32 -31.430562 152.866505 295 20ft 8kts
02-Jul-17 00:33 -31.433247 152.863677 210 20ft 22kts
02-Jul-17 00:34 -31.438657 152.860042 209 20ft 19kts
02-Jul-17 00:35 -31.441110 152.858573 274 20ft 1kts
02-Jul-17 00:36 -31.426674 152.868010 29 102ft 149kts
02-Jul-17 00:37 -31.385436 152.894163 29 2003ft 181kts
02-Jul-17 00:38 -31.340815 152.873988 269 3061ft 270kts
02-Jul-17 00:39 -31.364055 152.798219 257 6140ft 274kts
02-Jul-17 00:40 -31.372319 152.722303 263 8821ft 279kts
02-Jul-17 00:41 -31.377584 152.639591 266 10474ft 321kts
02-Jul-17 00:42 -31.383904 152.521963 266 12029ft 380kts
02-Jul-17 00:43 -31.390423 152.396450 266 14747ft 394kts
02-Jul-17 00:44 -31.397015 152.266740 266 17197ft 409kts
02-Jul-17 00:45 -31.403748 152.131647 266 19431ft 422kts
02-Jul-17 00:46 -31.410522 151.992380 266 21445ft 435kts
02-Jul-17 00:47 -31.435946 151.856902 228 23038ft 431kts
02-Jul-17 00:48 -31.530896 151.764782 216 22997ft 445kts
02-Jul-17 00:49 -31.629862 151.678257 216 23001ft 446kts
02-Jul-17 00:50 -31.729166 151.591643 216 23001ft 446kts
02-Jul-17 00:51 -31.828482 151.504795 216 23001ft 446kts
02-Jul-17 00:52 -31.927473 151.417993 216 23001ft 446kts
02-Jul-17 00:53 -32.025665 151.331619 217 23001ft 446kts
02-Jul-17 00:54 -32.116075 151.251823 216 23000ft 446kts
02-Jul-17 00:55 -32.214883 151.164586 216 23001ft 446kts
02-Jul-17 00:56 -32.313637 151.077049 216 23001ft 446kts
02-Jul-17 00:57 -32.412664 150.989022 216 23001ft 446kts
02-Jul-17 00:58 -32.519769 150.922409 179 23007ft 446kts
02-Jul-17 00:59 -32.642527 150.938258 171 23000ft 446kts
02-Jul-17 01:00 -32.765083 150.959704 171 23000ft 446kts
02-Jul-17 01:01 -32.886457 150.981280 171 23000ft 446kts
02-Jul-17 01:02 -33.008747 151.003089 171 23000ft 446kts
02-Jul-17 01:03 -33.125512 151.023964 171 23000ft 446kts
02-Jul-17 01:04 -33.247075 151.045841 170 23025ft 439kts
02-Jul-17 01:05 -33.362751 151.068013 170 21541ft 413kts
02-Jul-17 01:06 -33.474360 151.089449 170 19565ft 402kts
02-Jul-17 01:07 -33.583202 151.110410 170 17546ft 393kts
02-Jul-17 01:08 -33.688238 151.130991 170 15489ft 382kts
02-Jul-17 01:09 -33.788825 151.150534 171 12259ft 361kts
02-Jul-17 01:10 -33.882278 151.133992 193 10114ft 311kts
02-Jul-17 01:11 -33.960970 151.111624 193 8978ft 286kts
02-Jul-17 01:12 -34.024971 151.093179 193 7875ft 285kts
02-Jul-17 01:13 -34.105462 151.084809 167 6295ft 280kts
02-Jul-17 01:14 -34.179344 151.102923 168 5355ft 262kts
02-Jul-17 01:15 -34.242559 151.134800 110 4726ft 256kts
02-Jul-17 01:16 -34.216155 151.206543 29 4335ft 250kts
02-Jul-17 01:17 -34.165820 151.237264 10 3765ft 241kts
02-Jul-17 01:18 -34.101471 151.216690 346 2830ft 236kts
02-Jul-17 01:19 -34.042485 151.200905 347 1659ft 200kts
02-Jul-17 01:20 -33.995042 151.188574 347 667ft 148kts
02-Jul-17 01:21 -33.956671 151.178660 349 28ft 109kts
02-Jul-17 01:22 -33.947853 151.176384 347 28ft 31kts
02-Jul-17 01:23 -33.937165 151.173665 7 28ft 21kts
02-Jul-17 01:24 -33.935236 151.175960 346 28ft 11kts
02-Jul-17 01:28 -34.032369 151.198290 348 1414ft 191kts
02-Jul-17 01:29 -33.987497 151.186587 347 510ft 145kts
02-Jul-17 01:30 -33.996344 151.188917 347 686ft 150kts
02-Jul-17 01:31 -33.957615 151.178913 346 28ft 118kts
02-Jul-17 01:32 -34.005934 151.191437 347 912ft 161kts
02-Jul-17 01:33 -33.965956 151.181076 347 99ft 144kts
02-Jul-17 01:34 -34.000536 151.190020 347 767ft 157kts
02-Jul-17 01:35 -33.961343 151.179868 348 35ft 142kts
02-Jul-17 01:36 -33.948750 151.176617 347 28ft 25kts

Navigation Log

Ident Type
Flight plan parsing failed, navigation log unavailable